Time;durP1;ratioP1;P1;durP2;ratioP2;P2;SDS_P1;SDS_P2;PMS_P1;PMS_P2;Temp;Humidity;BMP_temperature;BMP_pressure;BME280_temperature;BME280_humidity;BME280_pressure;Samples;Min_cycle;Max_cycle;Signal;HPM_P1;HPM_P2
2022/12/15 00:40:50;;;;;;;24.13;11.73;;;;;;;-2.85;67.21;100604.16;5074986;28;20064;-62
2022/12/15 00:43:16;;;;;;;25.77;12.18;;;;;;;-2.74;67.89;100605.72;5074470;28;20020;-62
2022/12/15 00:48:25;;;;;;;25.63;11.88;;;;;;;-2.45;66.44;100611.69;5074430;28;20040;-62
2022/12/15 00:50:53;;;;;;;22.75;11.63;;;;;;;-2.46;65.84;100615.09;5074250;28;20029;-63
2022/12/15 01:20:43;;;;;;;26.67;11.90;;;;;;;-2.34;65.98;100614.13;5073770;28;20035;-62
2022/12/15 01:23:08;;;;;;;27.52;13.75;;;;;;;-2.42;66.10;100622.22;5073688;28;20028;-62
2022/12/15 01:25:38;;;;;;;21.15;12.48;;;;;;;-2.54;66.95;100620.69;5073725;28;20102;-63
2022/12/15 01:28:04;;;;;;;23.35;12.60;;;;;;;-2.54;66.27;100619.81;5073593;28;20496;-62
2022/12/15 01:30:29;;;;;;;24.83;12.55;;;;;;;-2.40;67.14;100633.53;5073487;28;20017;-62
2022/12/15 01:32:54;;;;;;;21.98;12.07;;;;;;;-2.20;65.89;100630.44;5073714;28;20155;-63
2022/12/15 01:35:20;;;;;;;26.90;12.57;;;;;;;-2.15;65.69;100626.41;5073604;28;20025;-62
2022/12/15 01:37:45;;;;;;;24.10;13.10;;;;;;;-2.14;64.95;100625.63;5055239;28;20049;-62
2022/12/15 01:43:01;;;;;;;21.58;11.60;;;;;;;-1.97;64.66;100620.50;5073298;28;20039;-62
2022/12/15 01:45:29;;;;;;;24.95;12.63;;;;;;;-1.99;64.69;100627.31;5073175;28;20107;-63
2022/12/15 01:48:11;;;;;;;25.45;12.25;;;;;;;-1.98;64.56;100634.25;5073092;28;20024;-62
2022/12/15 01:50:45;;;;;;;22.27;11.70;;;;;;;-2.04;64.18;100627.03;5073203;28;20031;-62
2022/12/15 01:53:13;;;;;;;20.40;11.55;;;;;;;-2.10;64.02;100635.38;5073190;28;20028;-62
2022/12/15 01:55:41;;;;;;;22.25;11.23;;;;;;;-2.14;64.89;100641.16;5072955;28;20033;-62
2022/12/15 01:58:08;;;;;;;23.58;11.48;;;;;;;-2.15;64.44;100644.53;5072906;28;20107;-62
2022/12/15 02:00:34;;;;;;;22.85;12.02;;;;;;;-2.10;64.74;100647.38;5072934;28;20103;-62
2022/12/15 02:03:01;;;;;;;20.92;11.77;;;;;;;-1.98;64.25;100644.63;5073153;28;20116;-62
2022/12/15 02:05:30;;;;;;;24.80;11.88;;;;;;;-1.94;63.55;100646.56;5072898;28;20611;-62
2022/12/15 02:07:57;;;;;;;20.55;11.65;;;;;;;-2.00;64.24;100649.72;5072609;28;20036;-62
2022/12/15 02:10:28;;;;;;;20.70;11.23;;;;;;;-2.06;63.99;100658.00;5073176;28;20023;-62
2022/12/15 02:13:14;;;;;;;22.17;12.10;;;;;;;-2.08;64.51;100658.75;5072981;28;20056;-62
2022/12/15 02:15:49;;;;;;;24.02;12.25;;;;;;;-2.16;64.59;100663.47;5072940;28;20512;-62
2022/12/15 02:18:20;;;;;;;24.00;11.93;;;;;;;-2.33;64.70;100661.56;5072605;28;20396;-62
2022/12/15 02:21:11;;;;;;;24.45;12.30;;;;;;;-2.55;66.76;100677.53;5072863;28;20028;-62
2022/12/15 02:24:05;;;;;;;23.70;12.32;;;;;;;-2.78;66.29;100671.84;5072828;28;20017;-62
2022/12/15 02:27:07;;;;;;;26.42;13.38;;;;;;;-2.92;66.38;100670.09;5054693;28;20462;-62
2022/12/15 02:29:44;;;;;;;25.60;12.63;;;;;;;-3.12;67.82;100670.59;5072676;28;20035;-63
2022/12/15 02:32:20;;;;;;;23.00;11.57;;;;;;;-3.08;68.25;100669.97;5072772;28;20024;-62
2022/12/15 02:34:53;;;;;;;25.67;12.35;;;;;;;-2.81;68.08;100682.00;5072822;28;20036;-62
2022/12/15 02:37:34;;;;;;;22.98;11.45;;;;;;;-2.56;67.44;100680.91;5072540;28;20055;-62
2022/12/15 02:40:00;;;;;;;23.65;12.00;;;;;;;-2.50;66.80;100678.69;5054909;28;20145;-62
2022/12/15 02:42:29;;;;;;;24.45;12.07;;;;;;;-2.50;65.35;100680.38;5072578;28;20028;-62
2022/12/15 02:45:07;;;;;;;23.10;12.82;;;;;;;-2.51;65.33;100676.91;5072591;28;20028;-62
2022/12/15 02:47:50;;;;;;;25.80;12.45;;;;;;;-2.63;66.21;100671.88;5072326;28;20077;-62
2022/12/15 02:50:45;;;;;;;22.15;12.13;;;;;;;-2.73;66.87;100682.47;5072737;28;20038;-62
2022/12/15 02:53:40;;;;;;;24.58;12.88;;;;;;;-2.75;66.89;100684.06;5071716;28;20040;-62
2022/12/15 02:56:31;;;;;;;24.15;12.43;;;;;;;-2.87;67.49;100683.31;5074036;28;20025;-62
2022/12/15 02:58:56;;;;;;;24.23;12.18;;;;;;;-2.88;67.81;100684.13;5076581;28;20090;-62
2022/12/15 03:01:51;;;;;;;23.55;12.05;;;;;;;-2.90;67.48;100672.81;5076509;28;20477;-62
2022/12/15 03:04:18;;;;;;;24.05;12.77;;;;;;;-2.87;66.79;100675.56;5076483;28;20128;-62
2022/12/15 03:06:44;;;;;;;23.52;12.20;;;;;;;-2.80;66.87;100672.56;5076535;28;20070;-62
2022/12/15 03:09:09;;;;;;;20.25;11.82;;;;;;;-2.74;66.55;100678.13;5076099;28;20029;-62
2022/12/15 03:11:36;;;;;;;22.45;12.43;;;;;;;-2.66;67.12;100686.31;5076427;28;20083;-62
2022/12/15 03:14:01;;;;;;;23.20;11.70;;;;;;;-2.65;66.55;100694.19;5076163;28;20367;-62
2022/12/15 03:16:27;;;;;;;24.05;12.32;;;;;;;-2.70;66.60;100686.94;5076229;28;20070;-63
2022/12/15 03:18:53;;;;;;;28.13;12.82;;;;;;;-2.83;66.82;100693.94;5076038;28;20052;-62
2022/12/15 03:21:18;;;;;;;22.83;12.23;;;;;;;-2.89;67.30;100703.03;5076093;28;20103;-63
2022/12/15 03:23:43;;;;;;;24.42;13.13;;;;;;;-2.97;67.47;100693.88;5076128;28;20025;-63
2022/12/15 03:26:09;;;;;;;22.48;12.43;;;;;;;-3.01;67.27;100703.13;5075932;28;20517;-63
2022/12/15 03:28:34;;;;;;;25.20;12.65;;;;;;;-3.03;67.52;100704.75;5075752;28;20086;-62
2022/12/15 03:31:00;;;;;;;28.15;12.95;;;;;;;-3.06;67.16;100708.03;5075880;28;20021;-62
2022/12/15 03:33:25;;;;;;;24.00;12.15;;;;;;;-3.12;66.96;100704.19;5058127;28;20119;-62
2022/12/15 03:35:50;;;;;;;21.15;11.77;;;;;;;-3.16;67.50;100705.69;5075826;28;20033;-62
2022/12/15 03:38:17;;;;;;;21.50;11.40;;;;;;;-3.12;67.66;100712.81;5075593;28;20062;-61
2022/12/15 03:40:42;;;;;;;25.83;13.02;;;;;;;-3.02;67.80;100711.69;5075638;28;20028;-64
2022/12/15 03:43:08;;;;;;;25.90;12.48;;;;;;;-3.00;67.57;100711.78;5075711;28;20568;-61
2022/12/15 03:45:33;;;;;;;24.25;13.43;;;;;;;-3.00;67.09;100709.19;5075601;28;20033;-61
2022/12/15 03:47:58;;;;;;;23.90;13.25;;;;;;;-3.07;68.35;100711.41;5075270;28;20120;-61
2022/12/15 03:50:26;;;;;;;24.60;13.18;;;;;;;-3.09;68.41;100710.41;5057971;28;20496;-62
2022/12/15 03:52:58;;;;;;;25.35;12.88;;;;;;;-3.09;68.13;100710.41;5075396;28;20032;-61
2022/12/15 03:55:24;;;;;;;25.40;13.40;;;;;;;-3.17;67.97;100715.88;5075585;28;20028;-61
2022/12/15 03:57:50;;;;;;;27.00;13.18;;;;;;;-3.15;67.95;100720.38;5075219;28;20401;-62
2022/12/15 04:00:17;;;;;;;23.40;12.25;;;;;;;-3.06;68.71;100720.94;5075366;28;20021;-61
2022/12/15 04:02:43;;;;;;;23.92;12.55;;;;;;;-2.95;68.22;100721.63;5074838;28;20027;-62
2022/12/15 04:05:16;;;;;;;26.75;13.27;;;;;;;-2.97;68.06;100719.75;5075300;28;20390;-61
2022/12/15 04:07:41;;;;;;;;;;;;;;;-2.91;66.74;100717.53;5075439;28;20481;-61
2022/12/15 04:10:06;;;;;;;23.08;12.25;;;;;;;-3.02;67.28;100707.41;5075121;28;19916;-62
2022/12/15 04:12:32;;;;;;;26.58;13.25;;;;;;;-3.05;68.32;100701.16;5075493;28;20421;-62
2022/12/15 04:14:57;;;;;;;25.70;12.02;;;;;;;-3.07;68.47;100700.19;5075221;28;20446;-62
2022/12/15 04:17:23;;;;;;;31.63;13.68;;;;;;;-3.07;68.46;100689.84;5074809;28;20029;-62
2022/12/15 04:22:32;;;;;;;33.80;12.60;;;;;;;-2.92;67.75;100697.66;5075323;28;20059;-62
2022/12/15 05:33:21;;;;;;;25.70;12.88;;;;;;;-3.17;69.39;100749.50;5073654;28;20381;-62
2022/12/15 05:35:46;;;;;;;24.42;12.60;;;;;;;-3.21;69.73;100745.84;5073413;28;20111;-62
2022/12/15 05:38:12;;;;;;;26.80;13.63;;;;;;;-3.28;69.75;100747.13;5073269;28;20460;-62
2022/12/15 05:40:37;;;;;;;24.15;13.40;;;;;;;-3.36;70.03;100739.69;5073273;28;20074;-61
2022/12/15 05:43:03;;;;;;;34.55;14.38;;;;;;;-3.33;70.23;100745.06;5073508;28;20085;-62
2022/12/15 05:45:28;;;;;;;29.63;14.27;;;;;;;-3.40;70.55;100751.50;5055580;28;20052;-62
2022/12/15 05:47:54;;;;;;;26.58;13.45;;;;;;;-3.44;70.55;100753.78;5073091;28;20112;-62
2022/12/15 05:50:20;;;;;;;28.45;14.13;;;;;;;-3.48;70.43;100757.84;5073287;28;20591;-62
2022/12/15 05:52:46;;;;;;;28.75;13.95;;;;;;;-3.53;70.54;100759.25;5073221;28;20397;-62
2022/12/15 05:55:11;;;;;;;27.10;13.65;;;;;;;-3.58;71.25;100764.13;5073230;28;20029;-63
2022/12/15 05:57:37;;;;;;;27.65;14.10;;;;;;;-3.60;71.39;100763.13;5073025;28;20485;-63
2022/12/15 06:00:04;;;;;;;27.00;13.57;;;;;;;-3.57;71.88;100763.31;5072905;28;20127;-62
2022/12/15 06:02:30;;;;;;;30.45;13.60;;;;;;;-3.56;72.01;100762.50;5072953;28;20024;-62
2022/12/15 06:04:55;;;;;;;26.95;14.05;;;;;;;-3.45;72.40;100768.38;5054918;28;20040;-62
2022/12/15 06:07:21;;;;;;;28.60;13.52;;;;;;;-3.34;71.37;100779.41;5073063;28;20021;-62
2022/12/15 06:09:46;;;;;;;25.75;13.75;;;;;;;-3.35;70.44;100767.28;5072776;28;20451;-62
2022/12/15 06:12:12;;;;;;;26.73;13.68;;;;;;;-3.43;69.97;100764.19;5072781;28;20039;-62
2022/12/15 06:14:37;;;;;;;26.05;13.15;;;;;;;-3.44;71.29;100764.13;5072727;28;20492;-63
2022/12/15 06:17:03;;;;;;;33.38;14.32;;;;;;;-3.39;70.47;100770.47;5072880;28;20046;-62
2022/12/15 06:19:28;;;;;;;32.45;14.50;;;;;;;-3.42;71.14;100768.59;5072894;28;20385;-62
2022/12/15 06:21:53;;;;;;;25.85;14.50;;;;;;;-3.42;70.96;100768.59;5072809;28;20489;-62
2022/12/15 06:24:19;;;;;;;30.48;14.05;;;;;;;-3.42;71.46;100772.88;5072554;28;20025;-63
2022/12/15 06:26:45;;;;;;;29.92;14.32;;;;;;;-3.41;70.60;100775.53;5072812;28;20116;-62
2022/12/15 06:29:12;;;;;;;25.80;13.82;;;;;;;-3.30;69.96;100782.31;5054481;28;20021;-61
2022/12/15 06:31:38;;;;;;;26.92;13.52;;;;;;;-3.22;69.28;100780.19;5072653;28;20025;-63
2022/12/15 06:34:06;;;;;;;25.90;14.07;;;;;;;-3.16;68.98;100783.19;5072753;28;20031;-62
2022/12/15 06:36:32;;;;;;;25.25;13.52;;;;;;;-3.25;67.99;100785.19;5072736;28;20027;-62
2022/12/15 06:39:03;;;;;;;25.58;12.90;;;;;;;-3.43;68.17;100783.97;5072339;28;20470;-62
2022/12/15 06:41:29;;;;;;;26.60;13.80;;;;;;;-3.62;67.88;100776.72;5054905;28;20086;-61
2022/12/15 06:43:55;;;;;;;31.58;13.90;;;;;;;-3.71;68.99;100781.28;5072483;28;20029;-61
2022/12/15 06:46:21;;;;;;;24.35;13.23;;;;;;;-3.83;69.58;100769.34;5072463;28;20024;-62
2022/12/15 06:48:47;;;;;;;26.27;13.75;;;;;;;-3.78;69.57;100777.38;5072462;28;20382;-62
2022/12/15 06:51:14;;;;;;;29.30;13.52;;;;;;;-3.78;69.89;100779.97;5072707;28;20488;-61
2022/12/15 06:53:41;;;;;;;27.13;13.20;;;;;;;-3.77;69.04;100794.66;5072261;28;20052;-62
2022/12/15 06:56:14;;;;;;;27.42;12.68;;;;;;;-3.59;69.55;100807.94;5072526;28;20017;-62
2022/12/15 06:58:39;;;;;;;33.85;16.27;;;;;;;-3.65;71.77;100792.91;5072199;28;20037;-62
2022/12/15 07:01:06;;;;;;;29.50;13.60;;;;;;;-3.60;71.80;100776.03;5072449;28;20104;-62
2022/12/15 07:03:32;;;;;;;29.20;13.82;;;;;;;-3.47;70.58;100774.25;5072374;28;20035;-62
2022/12/15 07:06:03;;;;;;;29.90;14.45;;;;;;;-3.34;70.89;100779.41;5072295;28;20095;-62
2022/12/15 07:08:29;;;;;;;27.00;13.80;;;;;;;-3.18;70.99;100789.06;5072274;28;20048;-62
2022/12/15 07:10:55;;;;;;;31.25;14.93;;;;;;;-3.11;69.95;100786.97;5072386;28;20493;-62
2022/12/15 07:13:20;;;;;;;24.45;13.32;;;;;;;-3.19;70.14;100790.75;5072317;28;20031;-62
2022/12/15 07:15:48;;;;;;;28.02;14.07;;;;;;;-3.30;69.99;100797.81;5072601;28;20466;-61
2022/12/15 07:18:15;;;;;;;29.20;14.30;;;;;;;-3.42;71.09;100799.59;5072277;28;20028;-62
2022/12/15 07:20:41;;;;;;;27.80;13.77;;;;;;;-3.37;71.80;100805.06;5072202;28;20016;-62
2022/12/15 07:23:08;;;;;;;27.23;14.25;;;;;;;-3.29;71.85;100809.03;5072176;28;20032;-62
2022/12/15 07:25:38;;;;;;;27.00;13.65;;;;;;;-3.25;71.47;100804.94;5072522;28;20079;-62
2022/12/15 07:28:05;;;;;;;28.65;13.82;;;;;;;-3.22;70.13;100811.22;5072156;28;20032;-61
2022/12/15 07:30:31;;;;;;;28.40;14.32;;;;;;;-3.22;71.07;100815.50;5072141;28;20032;-62
2022/12/15 07:32:56;;;;;;;29.00;13.93;;;;;;;-3.30;70.65;100810.75;5072077;28;20355;-62
2022/12/15 07:35:22;;;;;;;28.40;13.48;;;;;;;-3.32;71.10;100804.56;5071858;28;20542;-62
2022/12/15 07:37:47;;;;;;;24.95;12.15;;;;;;;-3.30;69.89;100804.66;5071955;28;20041;-62
2022/12/15 07:40:12;;;;;;;26.45;13.00;;;;;;;-3.39;69.88;100810.09;5037399;28;20024;-61
2022/12/15 07:42:38;;;;;;;26.50;14.55;;;;;;;-3.45;70.47;100814.00;5074427;28;20067;-61
2022/12/15 07:45:05;;;;;;;30.52;13.18;;;;;;;-3.37;70.08;100812.81;5075636;28;20020;-61
2022/12/15 07:47:31;;;;;;;27.23;14.18;;;;;;;-3.31;69.63;100815.78;5075501;28;20093;-61
2022/12/15 07:49:57;;;;;;;30.52;13.70;;;;;;;-3.39;69.71;100816.97;5057410;28;20444;-61
2022/12/15 07:52:22;;;;;;;28.27;13.43;;;;;;;-3.45;70.04;100814.00;5075674;28;20027;-61
2022/12/15 07:54:48;;;;;;;27.35;14.32;;;;;;;-3.50;70.22;100815.38;5075550;28;20029;-61
2022/12/15 07:57:13;;;;;;;29.98;13.57;;;;;;;-3.52;70.38;100823.00;5075400;28;20111;-61
2022/12/15 07:59:38;;;;;;;24.40;14.27;;;;;;;-3.48;70.41;100809.50;5075177;28;20021;-61
2022/12/15 08:02:04;;;;;;;29.20;14.32;;;;;;;-3.36;69.58;100818.06;5075219;28;20055;-61
2022/12/15 08:04:30;;;;;;;32.90;16.17;;;;;;;-3.38;69.41;100817.09;5075088;28;20028;-61
2022/12/15 08:06:56;;;;;;;29.30;14.98;;;;;;;-3.50;70.69;100816.28;5075188;28;20036;-61
2022/12/15 08:09:22;;;;;;;30.25;14.82;;;;;;;-3.56;71.16;100829.66;5057295;28;20025;-62
2022/12/15 08:11:47;;;;;;;25.95;14.50;;;;;;;-3.48;71.46;100837.91;5057577;28;20044;-62
2022/12/15 08:14:14;;;;;;;30.77;15.65;;;;;;;-3.37;71.82;100829.19;5075030;28;20064;-63
2022/12/15 08:16:39;;;;;;;28.42;14.77;;;;;;;-3.29;72.06;100835.78;5057371;28;20058;-62
2022/12/15 08:19:06;;;;;;;30.60;14.65;;;;;;;-3.14;71.95;100834.97;5056822;28;20032;-61
2022/12/15 08:21:32;;;;;;;30.25;15.30;;;;;;;-2.97;71.58;100842.13;5074944;28;20040;-62
2022/12/15 08:23:59;;;;;;;32.95;15.45;;;;;;;-2.68;72.42;100835.34;5074957;28;20024;-62
2022/12/15 08:26:25;;;;;;;31.13;14.27;;;;;;;-2.29;70.50;100839.50;5075044;28;20051;-62
2022/12/15 08:28:51;;;;;;;30.85;15.20;;;;;;;-2.02;70.01;100832.53;5074673;28;20482;-62
2022/12/15 08:31:19;;;;;;;26.55;14.23;;;;;;;-1.88;68.37;100833.38;5074867;28;20029;-62
2022/12/15 08:33:45;;;;;;;31.02;14.65;;;;;;;-1.62;68.04;100828.06;5074545;28;20100;-62
2022/12/15 08:36:13;;;;;;;31.73;15.38;;;;;;;-1.47;67.82;100829.75;5056735;28;20062;-62
2022/12/15 08:38:40;;;;;;;30.60;16.48;;;;;;;-1.34;66.85;100838.31;5074455;28;20134;-63
2022/12/15 08:41:18;;;;;;;36.55;16.70;;;;;;;-1.07;68.11;100833.84;5074512;28;20027;-62
2022/12/15 08:43:45;;;;;;;31.98;14.32;;;;;;;-0.91;66.34;100835.59;5074664;28;20044;-62
2022/12/15 08:46:11;;;;;;;32.50;15.95;;;;;;;-0.81;65.40;100832.72;5074505;28;20575;-62
2022/12/15 08:48:37;;;;;;;33.42;17.15;;;;;;;-0.65;66.61;100837.03;5074304;28;20032;-62
2022/12/15 08:51:03;;;;;;;31.70;16.50;;;;;;;-0.32;65.25;100844.91;5074430;28;20488;-62
2022/12/15 08:53:28;;;;;;;27.88;15.50;;;;;;;0.11;65.70;100845.47;5073342;28;20016;-61
2022/12/15 08:55:54;;;;;;;28.58;16.55;;;;;;;0.52;64.85;100833.72;5074358;28;20373;-61
2022/12/15 08:58:19;;;;;;;35.75;15.93;;;;;;;0.95;63.69;100844.56;5074227;28;20104;-61
2022/12/15 09:00:45;;;;;;;29.55;16.25;;;;;;;1.33;62.84;100844.59;5074144;28;20087;-61
2022/12/15 09:03:10;;;;;;;28.10;15.98;;;;;;;1.49;60.30;100848.00;5074041;28;20036;-62
2022/12/15 09:05:37;;;;;;;30.55;16.70;;;;;;;1.59;60.22;100853.69;5074082;28;20072;-61
2022/12/15 09:08:03;;;;;;;32.20;17.55;;;;;;;1.47;60.03;100854.00;5055798;28;20028;-61
2022/12/15 09:10:29;;;;;;;31.60;18.08;;;;;;;1.32;60.00;100866.25;5073921;28;20496;-61
2022/12/15 09:12:54;;;;;;;29.77;16.73;;;;;;;1.30;60.11;100855.78;5056169;28;20481;-61
2022/12/15 09:15:19;;;;;;;32.15;17.40;;;;;;;1.47;60.52;100867.00;5073739;28;20029;-61
2022/12/15 09:17:46;;;;;;;36.40;18.50;;;;;;;1.63;59.63;100872.13;5073952;28;20029;-61
2022/12/15 09:20:13;;;;;;;33.95;17.92;;;;;;;1.95;59.90;100875.31;5073812;28;20032;-61
2022/12/15 09:22:38;;;;;;;38.22;18.38;;;;;;;2.16;58.63;100875.41;5074143;28;20388;-61
2022/12/15 09:25:04;;;;;;;32.92;17.83;;;;;;;2.50;58.85;100867.34;5055703;28;20089;-62
2022/12/15 09:27:30;;;;;;;37.53;18.08;;;;;;;2.76;57.49;100871.06;5073680;28;20138;-61
2022/12/15 09:29:56;;;;;;;33.72;18.50;;;;;;;2.73;56.56;100877.03;5073197;28;20112;-62
2022/12/15 09:32:22;;;;;;;35.13;17.92;;;;;;;2.57;56.60;100877.22;5073633;28;20039;-62
2022/12/15 09:34:50;;;;;;;37.50;19.17;;;;;;;2.47;56.98;100893.28;5073703;28;20474;-61
2022/12/15 09:37:15;;;;;;;37.15;20.35;;;;;;;2.16;57.70;100885.81;5073313;28;20135;-64
2022/12/15 09:39:40;;;;;;;31.83;17.38;;;;;;;2.24;58.77;100897.50;5073630;28;20123;-64
2022/12/15 09:42:22;;;;;;;31.42;17.67;;;;;;;2.44;58.62;100901.88;5073173;28;20380;-64
2022/12/15 09:44:53;;;;;;;33.42;17.92;;;;;;;2.58;58.73;100904.22;5073717;28;20027;-64
2022/12/15 09:47:27;;;;;;;32.00;18.63;;;;;;;2.73;58.71;100902.25;5073230;28;20048;-64
2022/12/15 09:50:14;;;;;;;34.20;18.20;;;;;;;3.06;59.26;100902.78;5073267;28;20029;-67
2022/12/15 09:52:50;;;;;;;35.03;17.25;;;;;;;3.34;58.49;100904.84;5055524;28;20032;-65
2022/12/15 09:55:24;;;;;;;33.03;18.00;;;;;;;3.43;57.32;100906.94;5073087;28;20078;-63
2022/12/15 09:57:53;;;;;;;35.50;19.05;;;;;;;3.18;57.45;100905.91;5073332;28;20036;-62
2022/12/15 10:00:29;;;;;;;40.90;19.77;;;;;;;3.08;57.56;100906.34;5072748;28;20486;-62
2022/12/15 10:03:27;;;;;;;35.55;19.30;;;;;;;3.10;59.46;100909.03;5073050;28;20028;-62
2022/12/15 10:05:56;;;;;;;36.85;18.77;;;;;;;3.30;58.06;100909.84;5073030;28;20426;-62
2022/12/15 10:08:22;;;;;;;34.97;18.00;;;;;;;3.39;58.05;100907.63;5072904;28;20059;-62
2022/12/15 10:10:57;;;;;;;38.28;19.50;;;;;;;3.28;58.35;100899.34;5073024;28;20133;-62
2022/12/15 10:13:37;;;;;;;32.20;19.05;;;;;;;3.25;58.11;100909.66;5072878;28;20032;-61
2022/12/15 10:16:11;;;;;;;34.63;18.48;;;;;;;3.33;57.56;100902.13;5073077;28;20028;-62
2022/12/15 10:18:49;;;;;;;32.80;18.65;;;;;;;3.59;58.79;100893.63;5072965;28;20492;-62
2022/12/15 10:21:14;;;;;;;28.98;18.35;;;;;;;3.93;57.30;100897.53;5072959;28;20078;-62
2022/12/15 10:23:40;;;;;;;32.03;18.15;;;;;;;4.08;56.79;100892.03;5072806;28;20024;-62
2022/12/15 10:26:25;;;;;;;31.55;18.40;;;;;;;4.18;56.20;100892.41;5072734;28;20443;-62
2022/12/15 10:29:13;;;;;;;34.78;19.63;;;;;;;4.00;55.76;100900.47;5072557;28;20028;-63
2022/12/15 10:31:59;;;;;;;34.30;18.85;;;;;;;4.14;57.50;100900.09;5072847;28;20032;-61
2022/12/15 10:34:31;;;;;;;31.88;18.05;;;;;;;4.48;55.92;100897.88;5072709;28;20042;-62
2022/12/15 10:36:57;;;;;;;29.15;17.92;;;;;;;4.63;55.41;100894.94;5073001;28;20154;-62
2022/12/15 10:39:34;;;;;;;33.83;19.13;;;;;;;4.76;54.99;100898.88;5072267;28;20080;-62
2022/12/15 10:42:24;;;;;;;34.20;18.30;;;;;;;4.57;54.43;100904.28;5072748;28;20059;-61
2022/12/15 10:44:52;;;;;;;37.15;18.52;;;;;;;4.35;54.79;100897.38;5072638;28;20036;-62
2022/12/15 10:47:28;;;;;;;31.58;18.00;;;;;;;4.53;55.67;100903.25;5072343;28;20040;-61
2022/12/15 10:49:55;;;;;;;35.25;19.20;;;;;;;4.93;55.33;100902.06;5072643;28;20499;-61
2022/12/15 10:52:47;;;;;;;32.30;18.27;;;;;;;5.34;55.25;100900.81;5072482;28;20033;-62
2022/12/15 10:55:35;;;;;;;32.70;18.02;;;;;;;5.57;55.13;100901.56;5068875;28;20040;-61
2022/12/15 10:58:03;;;;;;;29.52;17.80;;;;;;;5.74;53.14;100903.00;5072446;28;20103;-62
2022/12/15 11:00:31;;;;;;;31.60;18.65;;;;;;;5.82;53.24;100903.19;5072272;28;20489;-61
2022/12/15 11:02:57;;;;;;;35.67;18.05;;;;;;;5.97;52.15;100902.84;5072296;28;20390;-61
2022/12/15 11:05:24;;;;;;;32.75;18.55;;;;;;;5.67;51.61;100902.75;5072347;28;20028;-62
2022/12/15 11:07:52;;;;;;;38.00;19.55;;;;;;;5.58;52.77;100898.09;5072236;28;20389;-62
2022/12/15 11:10:20;;;;;;;28.80;17.90;;;;;;;5.80;52.85;100899.66;5072328;28;20420;-61
2022/12/15 11:12:56;;;;;;;38.22;18.92;;;;;;;6.07;51.56;100899.63;5072413;28;20017;-61
2022/12/15 11:15:22;;;;;;;39.42;19.02;;;;;;;5.96;50.68;100901.94;5072725;28;20075;-62
2022/12/15 11:18:05;;;;;;;29.42;19.05;;;;;;;5.74;51.70;100904.72;5074976;28;20020;-62
2022/12/15 11:20:37;;;;;;;31.05;17.75;;;;;;;5.73;51.59;100892.44;5076385;28;20025;-62
2022/12/15 11:23:15;;;;;;;35.03;19.17;;;;;;;5.68;52.26;100896.66;5076118;28;20032;-62
2022/12/15 11:25:45;;;;;;;32.22;18.38;;;;;;;5.72;50.39;100890.66;5076211;28;20036;-62
2022/12/15 11:28:19;;;;;;;30.88;18.15;;;;;;;5.46;50.99;100887.22;5075739;28;20150;-61
2022/12/15 11:30:51;;;;;;;34.22;19.00;;;;;;;5.44;51.50;100892.44;5076050;28;20434;-61
2022/12/15 11:33:17;;;;;;;30.63;17.92;;;;;;;5.71;51.67;100883.66;5058189;28;20111;-61
2022/12/15 11:36:06;;;;;;;34.83;18.67;;;;;;;5.81;50.63;100900.53;5076013;28;20398;-61
2022/12/15 11:38:51;;;;;;;30.17;18.40;;;;;;;5.92;51.31;100896.56;5075520;28;20080;-61
2022/12/15 11:41:31;;;;;;;28.63;17.77;;;;;;;6.01;49.90;100892.47;5075689;28;20040;-62
2022/12/15 11:44:13;;;;;;;34.22;18.70;;;;;;;6.07;49.79;100893.50;5075841;28;20040;-61
2022/12/15 11:47:01;;;;;;;31.30;18.77;;;;;;;6.42;49.23;100889.25;5057631;28;20430;-61
2022/12/15 11:49:47;;;;;;;33.05;18.40;;;;;;;6.75;48.71;100882.31;5075109;28;20198;-61
2022/12/15 11:52:42;;;;;;;30.33;18.15;;;;;;;6.95;48.02;100885.47;5075891;28;20036;-61
2022/12/15 11:55:35;;;;;;;29.08;19.20;;;;;;;6.99;49.02;100889.06;5064232;28;20040;-61
2022/12/15 11:58:19;;;;;;;31.52;18.95;;;;;;;7.10;47.56;100882.34;5075581;28;20108;-61
2022/12/15 12:01:32;;;;;;;35.35;18.95;;;;;;;7.20;48.83;100889.63;5075690;28;20052;-61
2022/12/15 12:04:21;;;;;;;36.15;19.77;;;;;;;7.48;47.40;100887.66;5075455;28;20107;-61
2022/12/15 12:06:54;;;;;;;36.53;21.77;;;;;;;7.75;46.37;100866.34;5075453;28;20036;-61
2022/12/15 12:09:34;;;;;;;38.35;22.70;;;;;;;8.25;46.44;100856.91;5075242;28;20035;-61
2022/12/15 12:12:17;;;;;;;35.83;19.80;;;;;;;8.33;46.55;100861.47;5075290;28;20029;-62
2022/12/15 12:15:26;;;;;;;34.25;20.15;;;;;;;8.14;46.48;100857.56;5075076;28;20029;-61
2022/12/15 12:17:56;;;;;;;34.83;20.85;;;;;;;8.05;45.01;100853.00;5075082;28;20028;-64
2022/12/15 12:20:51;;;;;;;33.92;20.58;;;;;;;8.43;46.93;100853.78;5075382;28;20024;-61
2022/12/15 12:23:27;;;;;;;36.42;20.88;;;;;;;8.66;45.32;100851.63;5054882;28;20401;-61
2022/12/15 12:26:06;;;;;;;37.30;20.95;;;;;;;8.93;44.12;100851.22;5075064;28;20036;-63
2022/12/15 12:28:58;;;;;;;37.63;21.95;;;;;;;8.67;44.56;100853.38;5074515;28;20111;-62
2022/12/15 12:31:23;;;;;;;36.92;21.55;;;;;;;8.51;43.62;100846.03;5036446;28;20047;-62
2022/12/15 12:33:53;;;;;;;37.53;20.27;;;;;;;8.44;45.13;100852.06;5074896;28;20020;-61
2022/12/15 12:36:19;;;;;;;30.13;19.30;;;;;;;8.51;44.60;100846.94;5074786;28;20059;-61
2022/12/15 12:38:49;;;;;;;35.53;19.70;;;;;;;8.70;44.87;100848.19;5074574;28;20095;-61
2022/12/15 12:41:34;;;;;;;29.65;19.23;;;;;;;9.16;44.37;100835.78;5056743;28;20482;-61
2022/12/15 12:44:08;;;;;;;32.33;20.02;;;;;;;9.41;43.14;100849.34;5074382;28;20074;-61
2022/12/15 12:46:41;;;;;;;36.10;19.45;;;;;;;9.38;43.20;100859.84;5074714;28;20474;-61
2022/12/15 12:49:23;;;;;;;34.75;20.05;;;;;;;9.39;44.68;100853.72;5074346;28;20037;-61
2022/12/15 12:51:55;;;;;;;34.38;20.13;;;;;;;9.50;43.68;100849.50;5074860;28;20035;-61
2022/12/15 12:54:32;;;;;;;40.40;20.70;;;;;;;9.49;44.29;100837.16;5074325;28;20078;-61
2022/12/15 12:56:58;;;;;;;35.83;19.52;;;;;;;9.83;42.95;100837.66;5074742;28;20431;-62
2022/12/15 12:59:29;;;;;;;36.53;19.67;;;;;;;10.02;42.46;100831.75;5074093;28;20107;-62
2022/12/15 13:02:13;;;;;;;31.75;19.67;;;;;;;10.03;42.82;100826.50;5074279;28;20021;-62
2022/12/15 13:04:48;;;;;;;32.08;20.10;;;;;;;10.13;42.08;100827.50;5074105;28;20024;-62
2022/12/15 13:07:30;;;;;;;33.22;19.10;;;;;;;10.11;43.29;100823.06;5074266;28;20107;-62
2022/12/15 13:10:08;;;;;;;36.53;19.95;;;;;;;10.14;42.63;100817.81;5074007;28;20021;-63
2022/12/15 13:12:48;;;;;;;32.10;20.02;;;;;;;10.25;41.18;100824.16;5074119;28;20377;-62
2022/12/15 13:15:25;;;;;;;32.42;19.23;;;;;;;10.35;41.29;100812.81;5074083;28;20426;-62
2022/12/15 13:17:57;;;;;;;30.25;18.13;;;;;;;10.51;41.06;100806.81;5073958;28;20035;-62
2022/12/15 13:20:28;;;;;;;33.42;19.42;;;;;;;10.55;41.16;100804.22;5073955;28;20111;-62
2022/12/15 13:22:55;;;;;;;31.20;20.23;;;;;;;10.22;40.66;100797.66;5073880;28;20103;-62
2022/12/15 13:25:37;;;;;;;31.13;19.60;;;;;;;9.94;42.91;100791.19;5073918;28;20520;-62
2022/12/15 13:28:19;;;;;;;33.55;19.90;;;;;;;9.75;43.00;100788.28;5073517;28;20361;-62
2022/12/15 13:31:21;;;;;;;31.90;19.45;;;;;;;9.87;43.55;100791.97;5073761;28;20032;-62
2022/12/15 13:33:49;;;;;;;34.85;19.63;;;;;;;9.72;42.67;100790.00;5055655;28;20040;-62
2022/12/15 13:36:48;;;;;;;29.58;18.90;;;;;;;9.72;44.51;100775.09;5073244;28;20036;-62
2022/12/15 13:39:17;;;;;;;29.65;18.90;;;;;;;9.82;42.84;100789.28;5029272;28;20067;-62
2022/12/15 13:41:46;;;;;;;29.73;19.73;;;;;;;9.72;42.71;100787.34;5073317;28;20094;-62
2022/12/15 13:44:34;;;;;;;31.20;19.80;;;;;;;9.71;43.41;100777.69;5073371;28;20051;-64
2022/12/15 13:47:24;;;;;;;29.20;19.42;;;;;;;10.05;43.82;100786.91;5073440;28;20024;-62
2022/12/15 13:50:07;;;;;;;30.52;19.45;;;;;;;10.20;42.90;100791.50;5073328;28;20029;-61
2022/12/15 13:52:40;;;;;;;;;;;;;;;10.18;43.31;100795.84;5073920;28;20063;-62
2022/12/15 13:55:18;;;;;;;35.95;19.27;;;;;;;9.75;43.29;100776.84;5073172;28;19916;-62